createdAt,value
2022-09-28T00:00:01.817Z,0
2022-09-28T00:05:01.678Z,0
2022-09-28T00:10:01.675Z,0
2022-09-28T00:15:01.657Z,0
2022-09-28T00:20:01.662Z,0
2022-09-28T00:25:01.890Z,0
2022-09-28T00:30:01.732Z,0
2022-09-28T00:35:01.721Z,0
2022-09-28T00:40:01.686Z,0
2022-09-28T00:45:01.766Z,0
2022-09-28T00:50:01.947Z,0
2022-09-28T00:55:01.857Z,0
2022-09-28T01:00:01.738Z,0
2022-09-28T01:05:01.749Z,0
2022-09-28T01:10:01.699Z,0
2022-09-28T01:15:01.878Z,0
2022-09-28T01:20:01.828Z,0
2022-09-28T01:25:01.812Z,0
2022-09-28T01:30:01.757Z,0
2022-09-28T01:35:01.766Z,0
2022-09-28T01:40:01.925Z,0
2022-09-28T01:45:01.995Z,0
2022-09-28T01:50:01.822Z,0
2022-09-28T01:55:01.738Z,0
2022-09-28T02:00:01.761Z,0
2022-09-28T02:05:02.097Z,0
2022-09-28T02:10:01.801Z,0
2022-09-28T02:15:01.786Z,0
2022-09-28T02:20:01.794Z,0
2022-09-28T02:25:01.792Z,0
2022-09-28T02:30:01.998Z,0
2022-09-28T02:35:01.865Z,0
2022-09-28T02:40:01.769Z,0
2022-09-28T02:45:01.802Z,0
2022-09-28T02:50:01.855Z,0
2022-09-28T02:55:01.950Z,0
2022-09-28T03:00:01.866Z,0
2022-09-28T03:05:01.840Z,0
2022-09-28T03:10:01.789Z,0
2022-09-28T03:15:01.835Z,0
2022-09-28T03:20:02.011Z,0
2022-09-28T03:25:01.843Z,0
2022-09-28T03:30:01.912Z,0
2022-09-28T03:35:01.866Z,0
2022-09-28T03:40:01.938Z,0
2022-09-28T03:45:01.995Z,0
2022-09-28T03:50:01.894Z,0
2022-09-28T03:55:01.828Z,0
2022-09-28T04:00:01.916Z,0
2022-09-28T04:05:01.889Z,0
2022-09-28T04:10:02.202Z,0
2022-09-28T04:15:01.998Z,0
2022-09-28T04:20:01.870Z,0
2022-09-28T04:25:01.889Z,0
2022-09-28T04:30:01.880Z,0
2022-09-28T04:35:02.064Z,0
2022-09-28T04:40:01.887Z,0
2022-09-28T04:45:01.895Z,0
2022-09-28T04:50:02.108Z,0
2022-09-28T04:55:01.903Z,0
2022-09-28T05:00:02.093Z,0
2022-09-28T05:05:01.968Z,0
2022-09-28T05:10:01.914Z,0
2022-09-28T05:15:01.921Z,0
2022-09-28T05:20:01.959Z,0
2022-09-28T05:25:02.234Z,0
2022-09-28T05:30:01.954Z,0.0896931216931217
2022-09-28T05:35:02.018Z,0.4224232804232805
2022-09-28T05:40:01.949Z,0.4487513227513228
2022-09-28T05:45:02.067Z,0.7554074074074073
2022-09-28T05:50:02.135Z,1.1885502645502646
2022-09-28T05:55:01.950Z,1.448698412698413
2022-09-28T06:00:01.975Z,1.671079365079365
2022-09-28T06:05:02.001Z,1.9903915343915346
2022-09-28T06:10:02.118Z,2.4613333333333336
2022-09-28T06:15:01.967Z,2.8624338624338623
2022-09-28T06:20:02.091Z,2.990603174603175
2022-09-28T06:25:02.426Z,3.0840846560846567
2022-09-28T06:30:02.593Z,4.0710687830687835
2022-09-28T06:35:02.197Z,4.670761904761904
2022-09-28T06:40:02.074Z,5.215047619047619
2022-09-28T06:45:02.086Z,5.360613756613757
2022-09-28T06:50:02.030Z,5.490116402116403
2022-09-28T06:55:02.104Z,6.157576719576719
2022-09-28T07:00:02.226Z,6.688211640211642
2022-09-28T07:05:02.067Z,7.327703703703703
2022-09-28T07:10:02.018Z,7.749269841269841
2022-09-28T07:15:02.030Z,8.185746031746032
2022-09-28T07:20:11.259Z,8.559248677248679
2022-09-28T07:25:02.228Z,8.24389417989418
2022-09-28T07:30:02.145Z,9.279068783068784
2022-09-28T07:35:02.083Z,9.610253968253968
2022-09-28T07:40:01.995Z,9.37473015873016
2022-09-28T07:45:02.185Z,9.12263492063492
2022-09-28T07:50:02.076Z,8.909682539682539
2022-09-28T07:55:06.090Z,9.734677248677249
2022-09-28T08:00:02.076Z,10.07962962962963
2022-09-28T08:05:02.092Z,10.302095238095237
2022-09-28T08:10:02.199Z,10.294645502645503
2022-09-28T08:15:02.097Z,11.247788359788359
2022-09-28T08:20:02.205Z,11.448539682539682
2022-09-28T08:25:02.084Z,12.488031746031746
2022-09-28T08:30:02.135Z,12.413449735449735
2022-09-28T08:35:02.210Z,12.552772486772486
2022-09-28T08:40:02.101Z,13.239375661375663
2022-09-28T08:45:02.089Z,13.600021164021165
2022-09-28T08:50:02.115Z,14.567820105820106
2022-09-28T08:55:02.134Z,15.995142857142858
2022-09-28T09:00:02.204Z,16.46132275132275
2022-09-28T09:05:02.479Z,16.351280423280425
2022-09-28T09:10:02.245Z,15.383566137566138
2022-09-28T09:15:02.295Z,14.996391534391535
2022-09-28T09:20:02.126Z,15.584433862433864
2022-09-28T09:25:02.299Z,16.42443386243386
2022-09-28T09:30:02.357Z,16.179735449735453
2022-09-28T09:35:02.158Z,16.224751322751324
2022-09-28T09:40:02.171Z,16.572751322751323
2022-09-28T09:45:02.298Z,17.677502645502646
2022-09-28T09:50:04.037Z,17.950486772486773
2022-09-28T09:55:02.335Z,18.436751322751324
2022-09-28T10:00:02.204Z,19.999089947089946
2022-09-28T10:05:02.233Z,19.96420105820106
2022-09-28T10:10:02.161Z,18.461566137566138
2022-09-28T10:15:02.183Z,18.572984126984128
2022-09-28T10:20:02.344Z,18.767174603174603
2022-09-28T10:25:02.179Z,18.732825396825397
2022-09-28T10:30:02.218Z,19.248603174603176
2022-09-28T10:35:02.233Z,18.485756613756614
2022-09-28T10:40:02.242Z,17.779936507936508
2022-09-28T10:45:02.282Z,17.788973544973544
2022-09-28T10:50:02.506Z,17.762486772486774
2022-09-28T10:55:02.274Z,17.328338624338624
2022-09-28T11:00:02.265Z,18.046444444444447
2022-09-28T11:05:02.243Z,18.54300529100529
2022-09-28T11:10:02.224Z,18.753439153439153
2022-09-28T11:15:02.506Z,18.257534391534392
2022-09-28T11:20:02.321Z,18.381428571428575
2022-09-28T11:25:02.238Z,19.12346031746032
2022-09-28T11:30:02.278Z,18.435396825396825
2022-09-28T11:35:02.267Z,15.737523809523813
2022-09-28T11:40:02.451Z,15.326603174603177
2022-09-28T11:45:02.305Z,15.609597883597884
2022-09-28T11:50:02.319Z,15.565449735449736
2022-09-28T11:55:02.330Z,13.820232804232804
2022-09-28T12:00:02.352Z,14.421904761904763
2022-09-28T12:05:02.464Z,14.122169312169314
2022-09-28T12:45:02.484Z,11.519714285714286
2022-09-28T12:55:02.364Z,11.384179894179896
2022-09-28T13:00:02.442Z,11.796624338624339
2022-09-28T13:05:02.544Z,11.479291005291007
2022-09-28T13:10:02.361Z,11.968105820105821
2022-09-28T13:15:02.377Z,11.712021164021165
2022-09-28T13:20:02.330Z,10.816338624338623
2022-09-28T13:25:02.429Z,9.834433862433862
2022-09-28T13:30:02.621Z,9.544222222222222
2022-09-28T13:35:02.369Z,10.076931216931216
2022-09-28T13:40:02.365Z,9.958804232804233
2022-09-28T13:45:02.404Z,9.96610582010582
2022-09-28T13:50:02.346Z,9.794222222222222
2022-09-28T13:55:02.483Z,9.242359788359789
2022-09-28T14:00:02.578Z,9.671597883597883
2022-09-28T14:05:02.418Z,8.905767195767195
2022-09-28T14:10:02.379Z,9.259904761904762
2022-09-28T14:15:02.423Z,8.51451851851852
2022-09-28T14:20:02.561Z,7.31389417989418
2022-09-28T14:25:02.615Z,6.9492486772486775
2022-09-28T14:30:02.471Z,6.073058201058201
2022-09-28T14:35:02.552Z,6.168529100529101
2022-09-28T14:40:02.403Z,5.803142857142857
2022-09-28T14:45:05.108Z,5.001756613756614
2022-09-28T14:50:02.694Z,4.316296296296295
2022-09-28T14:55:02.416Z,3.7405608465608466
2022-09-28T15:00:02.503Z,3.437746031746032
2022-09-28T15:05:02.604Z,3.7495343915343917
2022-09-28T15:10:02.426Z,3.091333333333334
2022-09-28T15:15:02.623Z,2.9496190476190476
2022-09-28T15:20:02.440Z,2.8119788359788362
2022-09-28T15:25:03.122Z,1.973978835978836
2022-09-28T15:30:02.447Z,1.6936719576719574
2022-09-28T15:35:02.638Z,1.3695873015873017
2022-09-28T15:40:02.782Z,1.135100529100529
2022-09-28T15:45:02.674Z,0.8126772486772488
2022-09-28T15:50:02.471Z,0.5470899470899471
2022-09-28T15:55:02.503Z,0.4215978835978836
2022-09-28T16:00:02.572Z,0.4860423280423281
2022-09-28T16:05:02.530Z,0.340010582010582
2022-09-28T16:10:02.846Z,0.2528677248677249
2022-09-28T16:15:02.540Z,0.1301058201058201
2022-09-28T16:20:02.630Z,0
2022-09-28T16:25:02.471Z,0
2022-09-28T16:30:02.519Z,0
2022-09-28T16:35:02.860Z,0
2022-09-28T16:40:02.727Z,0
2022-09-28T16:45:02.619Z,0
2022-09-28T16:50:02.525Z,0
2022-09-28T16:55:07.377Z,0
2022-09-28T17:00:02.653Z,0
2022-09-28T17:05:02.856Z,0
2022-09-28T17:10:02.677Z,0
2022-09-28T17:15:02.568Z,0
2022-09-28T17:20:02.538Z,0
2022-09-28T17:25:02.583Z,0
2022-09-28T17:30:02.692Z,0
2022-09-28T17:35:22.866Z,0
2022-09-28T17:40:02.796Z,0
2022-09-28T17:45:02.593Z,0
2022-09-28T17:50:02.734Z,0
2022-09-28T17:55:02.752Z,0
2022-09-28T18:00:02.593Z,0
2022-09-28T18:05:02.621Z,0
2022-09-28T18:10:02.768Z,0
2022-09-28T18:15:02.659Z,0
2022-09-28T18:20:02.820Z,0
2022-09-28T18:25:02.848Z,0
2022-09-28T18:30:02.618Z,0
2022-09-28T18:35:02.612Z,0
2022-09-28T18:40:02.636Z,0
2022-09-28T18:45:02.851Z,0
2022-09-28T18:50:02.631Z,0
2022-09-28T18:55:02.636Z,0
2022-09-28T19:00:02.712Z,0
2022-09-28T19:05:02.620Z,0
2022-09-28T19:10:02.883Z,0
2022-09-28T19:15:02.884Z,0
2022-09-28T19:20:02.752Z,0
2022-09-28T19:25:02.643Z,0
2022-09-28T19:30:02.719Z,0
2022-09-28T19:35:02.816Z,0
2022-09-28T19:40:02.710Z,0
2022-09-28T19:45:02.671Z,0
2022-09-28T19:50:02.748Z,0
2022-09-28T19:55:02.768Z,0
2022-09-28T20:00:03.682Z,0
2022-09-28T20:05:02.697Z,0
2022-09-28T20:10:02.677Z,0
2022-09-28T20:15:02.738Z,0
2022-09-28T20:20:02.824Z,0
2022-09-28T20:25:02.906Z,0
2022-09-28T20:30:02.725Z,0
2022-09-28T20:35:02.715Z,0
2022-09-28T20:40:02.745Z,0
2022-09-28T20:45:02.743Z,0
2022-09-28T20:50:02.903Z,0
2022-09-28T20:55:02.798Z,0
2022-09-28T21:00:03.040Z,0
2022-09-28T21:05:02.735Z,0
2022-09-28T21:10:02.742Z,0
2022-09-28T21:15:05.844Z,0
2022-09-28T21:20:02.764Z,0
2022-09-28T21:25:02.741Z,0
2022-09-28T21:30:02.804Z,0
2022-09-28T21:35:02.756Z,0
2022-09-28T21:40:02.892Z,0
2022-09-28T21:45:02.803Z,0
2022-09-28T21:50:02.767Z,0
2022-09-28T21:55:02.769Z,0
2022-09-28T22:00:02.819Z,0
2022-09-28T22:05:03.075Z,0
2022-09-28T22:10:03.089Z,0
2022-09-28T22:15:02.845Z,0
2022-09-28T22:20:02.831Z,0
2022-09-28T22:25:02.932Z,0
2022-09-28T22:30:03.086Z,0
2022-09-28T22:35:02.834Z,0
2022-09-28T22:40:02.923Z,0
2022-09-28T22:45:02.863Z,0
2022-09-28T22:50:03.033Z,0
2022-09-28T22:55:02.858Z,0
2022-09-28T23:00:02.861Z,0
2022-09-28T23:05:02.885Z,0
2022-09-28T23:10:03.002Z,0
2022-09-28T23:15:02.867Z,0
2022-09-28T23:20:02.858Z,0
2022-09-28T23:25:04.465Z,0
2022-09-28T23:30:03.074Z,0
2022-09-28T23:35:03.230Z,0
2022-09-28T23:40:02.865Z,0
2022-09-28T23:45:02.939Z,0
2022-09-28T23:50:03.133Z,0
2022-09-28T23:55:02.879Z,0
